sensor_id;sensor_type;location;lat;lon;timestamp;P1;durP1;ratioP1;P2;durP2;ratioP2
16963;SDS011;8598;50.508;10.436;2022-07-30T00:00:24;10.20;;;8.17;;
16963;SDS011;8598;50.508;10.436;2022-07-30T00:02:52;9.00;;;7.80;;
16963;SDS011;8598;50.508;10.436;2022-07-30T00:05:19;11.93;;;9.47;;
16963;SDS011;8598;50.508;10.436;2022-07-30T00:07:46;10.00;;;8.03;;
16963;SDS011;8598;50.508;10.436;2022-07-30T00:10:12;10.83;;;8.57;;
16963;SDS011;8598;50.508;10.436;2022-07-30T00:12:39;9.03;;;8.07;;
16963;SDS011;8598;50.508;10.436;2022-07-30T00:15:06;9.90;;;8.00;;
16963;SDS011;8598;50.508;10.436;2022-07-30T00:17:33;15.77;;;8.20;;
16963;SDS011;8598;50.508;10.436;2022-07-30T00:20:01;10.47;;;7.67;;
16963;SDS011;8598;50.508;10.436;2022-07-30T00:22:29;9.90;;;8.90;;
16963;SDS011;8598;50.508;10.436;2022-07-30T00:24:55;12.53;;;9.03;;
16963;SDS011;8598;50.508;10.436;2022-07-30T00:27:22;12.50;;;8.13;;
16963;SDS011;8598;50.508;10.436;2022-07-30T00:29:49;11.57;;;8.57;;
16963;SDS011;8598;50.508;10.436;2022-07-30T00:32:15;12.80;;;9.13;;
16963;SDS011;8598;50.508;10.436;2022-07-30T00:34:42;12.93;;;8.43;;
16963;SDS011;8598;50.508;10.436;2022-07-30T00:37:10;13.43;;;9.53;;
16963;SDS011;8598;50.508;10.436;2022-07-30T00:39:39;30.17;;;9.50;;
16963;SDS011;8598;50.508;10.436;2022-07-30T00:42:06;16.67;;;8.90;;
16963;SDS011;8598;50.508;10.436;2022-07-30T00:44:32;13.23;;;8.37;;
16963;SDS011;8598;50.508;10.436;2022-07-30T00:46:59;13.83;;;8.63;;
16963;SDS011;8598;50.508;10.436;2022-07-30T00:49:26;10.57;;;8.90;;
16963;SDS011;8598;50.508;10.436;2022-07-30T00:51:52;11.43;;;9.30;;
16963;SDS011;8598;50.508;10.436;2022-07-30T00:54:20;29.60;;;11.10;;
16963;SDS011;8598;50.508;10.436;2022-07-30T00:56:47;18.50;;;9.17;;
16963;SDS011;8598;50.508;10.436;2022-07-30T00:59:14;24.80;;;9.10;;
16963;SDS011;8598;50.508;10.436;2022-07-30T01:01:41;17.47;;;8.10;;
16963;SDS011;8598;50.508;10.436;2022-07-30T01:04:07;11.70;;;7.30;;
16963;SDS011;8598;50.508;10.436;2022-07-30T01:06:35;16.07;;;8.27;;
16963;SDS011;8598;50.508;10.436;2022-07-30T01:09:03;14.20;;;9.30;;
16963;SDS011;8598;50.508;10.436;2022-07-30T01:11:32;20.17;;;11.53;;
16963;SDS011;8598;50.508;10.436;2022-07-30T01:14:00;14.73;;;9.70;;
16963;SDS011;8598;50.508;10.436;2022-07-30T01:16:28;10.63;;;9.47;;
16963;SDS011;8598;50.508;10.436;2022-07-30T01:18:55;13.80;;;8.77;;
16963;SDS011;8598;50.508;10.436;2022-07-30T01:21:42;17.40;;;10.03;;
16963;SDS011;8598;50.508;10.436;2022-07-30T01:24:17;19.87;;;10.23;;
16963;SDS011;8598;50.508;10.436;2022-07-30T01:26:49;37.60;;;11.23;;
16963;SDS011;8598;50.508;10.436;2022-07-30T01:29:17;15.80;;;8.97;;
16963;SDS011;8598;50.508;10.436;2022-07-30T01:31:44;24.60;;;9.70;;
16963;SDS011;8598;50.508;10.436;2022-07-30T01:34:13;14.50;;;9.30;;
16963;SDS011;8598;50.508;10.436;2022-07-30T01:36:41;17.83;;;9.27;;
16963;SDS011;8598;50.508;10.436;2022-07-30T01:39:11;13.03;;;9.20;;
16963;SDS011;8598;50.508;10.436;2022-07-30T01:41:39;15.43;;;9.93;;
16963;SDS011;8598;50.508;10.436;2022-07-30T01:44:09;11.47;;;9.60;;
16963;SDS011;8598;50.508;10.436;2022-07-30T01:46:37;15.63;;;9.20;;
16963;SDS011;8598;50.508;10.436;2022-07-30T01:49:04;13.33;;;10.60;;
16963;SDS011;8598;50.508;10.436;2022-07-30T01:51:33;18.80;;;11.30;;
16963;SDS011;8598;50.508;10.436;2022-07-30T01:54:05;18.13;;;11.13;;
16963;SDS011;8598;50.508;10.436;2022-07-30T01:56:33;15.07;;;10.93;;
16963;SDS011;8598;50.508;10.436;2022-07-30T01:59:02;15.20;;;11.13;;
16963;SDS011;8598;50.508;10.436;2022-07-30T02:01:34;14.57;;;10.77;;
16963;SDS011;8598;50.508;10.436;2022-07-30T02:04:01;15.10;;;9.97;;
16963;SDS011;8598;50.508;10.436;2022-07-30T02:06:31;17.57;;;9.73;;
16963;SDS011;8598;50.508;10.436;2022-07-30T02:09:03;15.70;;;10.17;;
16963;SDS011;8598;50.508;10.436;2022-07-30T02:11:31;15.17;;;11.50;;
16963;SDS011;8598;50.508;10.436;2022-07-30T02:14:22;17.33;;;11.50;;
16963;SDS011;8598;50.508;10.436;2022-07-30T02:16:54;17.93;;;11.43;;
16963;SDS011;8598;50.508;10.436;2022-07-30T02:19:23;17.33;;;12.27;;
16963;SDS011;8598;50.508;10.436;2022-07-30T02:21:55;16.13;;;10.93;;
16963;SDS011;8598;50.508;10.436;2022-07-30T02:24:26;17.40;;;10.73;;
16963;SDS011;8598;50.508;10.436;2022-07-30T02:27:02;14.57;;;9.83;;
16963;SDS011;8598;50.508;10.436;2022-07-30T02:29:32;17.20;;;11.17;;
16963;SDS011;8598;50.508;10.436;2022-07-30T02:32:01;19.40;;;11.63;;
16963;SDS011;8598;50.508;10.436;2022-07-30T02:34:33;19.57;;;11.93;;
16963;SDS011;8598;50.508;10.436;2022-07-30T02:37:02;17.77;;;11.40;;
16963;SDS011;8598;50.508;10.436;2022-07-30T02:39:33;16.80;;;11.43;;
16963;SDS011;8598;50.508;10.436;2022-07-30T02:42:01;16.50;;;10.87;;
16963;SDS011;8598;50.508;10.436;2022-07-30T02:44:29;16.97;;;11.20;;
16963;SDS011;8598;50.508;10.436;2022-07-30T02:46:56;28.30;;;11.43;;
16963;SDS011;8598;50.508;10.436;2022-07-30T02:49:25;19.43;;;11.27;;
16963;SDS011;8598;50.508;10.436;2022-07-30T02:51:53;17.20;;;11.10;;
16963;SDS011;8598;50.508;10.436;2022-07-30T02:54:20;29.73;;;11.87;;
16963;SDS011;8598;50.508;10.436;2022-07-30T02:56:49;21.57;;;11.47;;
16963;SDS011;8598;50.508;10.436;2022-07-30T02:59:18;26.10;;;13.70;;
16963;SDS011;8598;50.508;10.436;2022-07-30T03:01:46;19.87;;;13.70;;
16963;SDS011;8598;50.508;10.436;2022-07-30T03:04:17;22.17;;;13.50;;
16963;SDS011;8598;50.508;10.436;2022-07-30T03:06:46;20.13;;;13.30;;
16963;SDS011;8598;50.508;10.436;2022-07-30T03:09:14;22.93;;;15.43;;
16963;SDS011;8598;50.508;10.436;2022-07-30T03:11:41;21.10;;;15.17;;
16963;SDS011;8598;50.508;10.436;2022-07-30T03:14:08;22.97;;;13.73;;
16963;SDS011;8598;50.508;10.436;2022-07-30T03:16:36;25.33;;;13.90;;
16963;SDS011;8598;50.508;10.436;2022-07-30T03:19:04;22.70;;;13.73;;
16963;SDS011;8598;50.508;10.436;2022-07-30T03:21:34;22.13;;;14.77;;
16963;SDS011;8598;50.508;10.436;2022-07-30T03:24:04;23.50;;;13.57;;
16963;SDS011;8598;50.508;10.436;2022-07-30T03:26:32;25.40;;;13.83;;
16963;SDS011;8598;50.508;10.436;2022-07-30T03:29:01;23.47;;;13.53;;
16963;SDS011;8598;50.508;10.436;2022-07-30T03:31:28;19.47;;;13.60;;
16963;SDS011;8598;50.508;10.436;2022-07-30T03:33:55;25.20;;;15.93;;
16963;SDS011;8598;50.508;10.436;2022-07-30T03:36:22;29.13;;;15.23;;
16963;SDS011;8598;50.508;10.436;2022-07-30T03:38:50;36.17;;;16.77;;
16963;SDS011;8598;50.508;10.436;2022-07-30T03:41:18;26.80;;;15.07;;
16963;SDS011;8598;50.508;10.436;2022-07-30T03:43:46;26.30;;;17.93;;
16963;SDS011;8598;50.508;10.436;2022-07-30T03:46:13;30.20;;;18.47;;
16963;SDS011;8598;50.508;10.436;2022-07-30T03:48:41;27.00;;;17.70;;
16963;SDS011;8598;50.508;10.436;2022-07-30T03:51:08;29.17;;;16.77;;
16963;SDS011;8598;50.508;10.436;2022-07-30T03:53:35;28.37;;;17.30;;
16963;SDS011;8598;50.508;10.436;2022-07-30T03:56:02;26.67;;;15.93;;
16963;SDS011;8598;50.508;10.436;2022-07-30T03:58:31;24.17;;;16.37;;
16963;SDS011;8598;50.508;10.436;2022-07-30T04:00:57;29.87;;;16.20;;
16963;SDS011;8598;50.508;10.436;2022-07-30T04:03:24;29.43;;;15.40;;
16963;SDS011;8598;50.508;10.436;2022-07-30T04:05:51;21.03;;;14.77;;
16963;SDS011;8598;50.508;10.436;2022-07-30T04:08:18;29.13;;;16.23;;
16963;SDS011;8598;50.508;10.436;2022-07-30T04:10:46;21.00;;;15.23;;
16963;SDS011;8598;50.508;10.436;2022-07-30T04:13:13;24.30;;;15.37;;
16963;SDS011;8598;50.508;10.436;2022-07-30T04:15:42;19.47;;;14.57;;
16963;SDS011;8598;50.508;10.436;2022-07-30T04:18:14;20.80;;;14.53;;
16963;SDS011;8598;50.508;10.436;2022-07-30T04:20:43;21.10;;;16.43;;
16963;SDS011;8598;50.508;10.436;2022-07-30T04:23:12;18.93;;;14.40;;
16963;SDS011;8598;50.508;10.436;2022-07-30T04:25:39;20.50;;;14.07;;
16963;SDS011;8598;50.508;10.436;2022-07-30T04:28:08;23.40;;;14.53;;
16963;SDS011;8598;50.508;10.436;2022-07-30T04:30:36;23.03;;;14.70;;
16963;SDS011;8598;50.508;10.436;2022-07-30T04:33:04;21.80;;;13.90;;
16963;SDS011;8598;50.508;10.436;2022-07-30T04:35:32;19.70;;;12.93;;
16963;SDS011;8598;50.508;10.436;2022-07-30T04:38:00;18.17;;;12.57;;
16963;SDS011;8598;50.508;10.436;2022-07-30T04:40:28;18.20;;;12.87;;
16963;SDS011;8598;50.508;10.436;2022-07-30T04:42:55;20.80;;;13.77;;
16963;SDS011;8598;50.508;10.436;2022-07-30T04:45:21;17.23;;;13.03;;
16963;SDS011;8598;50.508;10.436;2022-07-30T04:47:48;17.67;;;13.30;;
16963;SDS011;8598;50.508;10.436;2022-07-30T04:50:19;20.87;;;12.87;;
16963;SDS011;8598;50.508;10.436;2022-07-30T04:52:48;18.13;;;12.50;;
16963;SDS011;8598;50.508;10.436;2022-07-30T04:55:15;18.53;;;11.70;;
16963;SDS011;8598;50.508;10.436;2022-07-30T04:57:45;20.23;;;12.67;;
16963;SDS011;8598;50.508;10.436;2022-07-30T05:00:13;32.60;;;12.20;;
16963;SDS011;8598;50.508;10.436;2022-07-30T05:02:40;19.23;;;12.33;;
16963;SDS011;8598;50.508;10.436;2022-07-30T05:05:08;13.17;;;10.60;;
16963;SDS011;8598;50.508;10.436;2022-07-30T05:07:41;14.27;;;11.80;;
16963;SDS011;8598;50.508;10.436;2022-07-30T05:10:11;33.83;;;11.53;;
16963;SDS011;8598;50.508;10.436;2022-07-30T05:12:38;14.60;;;10.63;;
16963;SDS011;8598;50.508;10.436;2022-07-30T05:15:06;12.67;;;10.63;;
16963;SDS011;8598;50.508;10.436;2022-07-30T05:17:34;16.43;;;9.40;;
16963;SDS011;8598;50.508;10.436;2022-07-30T05:20:02;32.63;;;9.27;;
16963;SDS011;8598;50.508;10.436;2022-07-30T05:22:29;21.87;;;9.37;;
16963;SDS011;8598;50.508;10.436;2022-07-30T05:24:57;15.47;;;8.17;;
16963;SDS011;8598;50.508;10.436;2022-07-30T05:27:24;32.17;;;8.60;;
16963;SDS011;8598;50.508;10.436;2022-07-30T05:29:50;36.93;;;9.17;;
16963;SDS011;8598;50.508;10.436;2022-07-30T05:32:17;47.53;;;10.27;;
16963;SDS011;8598;50.508;10.436;2022-07-30T05:34:46;30.83;;;8.93;;
16963;SDS011;8598;50.508;10.436;2022-07-30T05:37:13;20.33;;;9.07;;
16963;SDS011;8598;50.508;10.436;2022-07-30T05:39:40;64.73;;;11.20;;
16963;SDS011;8598;50.508;10.436;2022-07-30T05:42:08;27.03;;;9.40;;
16963;SDS011;8598;50.508;10.436;2022-07-30T05:44:34;16.33;;;10.20;;
16963;SDS011;8598;50.508;10.436;2022-07-30T05:47:01;14.93;;;8.50;;
16963;SDS011;8598;50.508;10.436;2022-07-30T05:49:28;18.00;;;8.17;;
16963;SDS011;8598;50.508;10.436;2022-07-30T05:51:54;23.07;;;9.73;;
16963;SDS011;8598;50.508;10.436;2022-07-30T05:54:24;9.97;;;7.73;;
16963;SDS011;8598;50.508;10.436;2022-07-30T05:56:50;9.07;;;8.17;;
16963;SDS011;8598;50.508;10.436;2022-07-30T05:59:18;8.70;;;7.80;;
16963;SDS011;8598;50.508;10.436;2022-07-30T06:01:45;7.07;;;6.37;;
16963;SDS011;8598;50.508;10.436;2022-07-30T06:04:12;8.60;;;5.80;;
16963;SDS011;8598;50.508;10.436;2022-07-30T06:06:38;10.47;;;6.67;;
16963;SDS011;8598;50.508;10.436;2022-07-30T06:09:05;7.93;;;6.93;;
16963;SDS011;8598;50.508;10.436;2022-07-30T06:11:32;10.07;;;7.63;;
16963;SDS011;8598;50.508;10.436;2022-07-30T06:13:58;8.23;;;7.37;;
16963;SDS011;8598;50.508;10.436;2022-07-30T06:16:26;8.97;;;8.07;;
16963;SDS011;8598;50.508;10.436;2022-07-30T06:18:53;7.90;;;7.10;;
16963;SDS011;8598;50.508;10.436;2022-07-30T06:21:20;8.73;;;7.30;;
16963;SDS011;8598;50.508;10.436;2022-07-30T06:23:46;7.97;;;7.13;;
16963;SDS011;8598;50.508;10.436;2022-07-30T06:26:13;8.63;;;7.23;;
16963;SDS011;8598;50.508;10.436;2022-07-30T06:28:40;8.13;;;7.33;;
16963;SDS011;8598;50.508;10.436;2022-07-30T06:31:06;12.23;;;8.00;;
16963;SDS011;8598;50.508;10.436;2022-07-30T06:33:34;11.00;;;7.33;;
16963;SDS011;8598;50.508;10.436;2022-07-30T06:36:01;8.37;;;6.67;;
16963;SDS011;8598;50.508;10.436;2022-07-30T06:38:28;9.77;;;6.07;;
16963;SDS011;8598;50.508;10.436;2022-07-30T06:40:55;6.33;;;5.47;;
16963;SDS011;8598;50.508;10.436;2022-07-30T06:43:21;6.40;;;5.60;;
16963;SDS011;8598;50.508;10.436;2022-07-30T06:45:48;5.63;;;4.97;;
16963;SDS011;8598;50.508;10.436;2022-07-30T06:48:15;6.07;;;5.47;;
16963;SDS011;8598;50.508;10.436;2022-07-30T06:50:43;5.40;;;4.90;;
16963;SDS011;8598;50.508;10.436;2022-07-30T06:53:09;4.97;;;4.40;;
16963;SDS011;8598;50.508;10.436;2022-07-30T06:55:36;5.30;;;4.17;;
16963;SDS011;8598;50.508;10.436;2022-07-30T06:58:03;5.53;;;3.73;;
16963;SDS011;8598;50.508;10.436;2022-07-30T07:00:30;5.40;;;3.50;;
16963;SDS011;8598;50.508;10.436;2022-07-30T07:02:56;5.67;;;3.47;;
16963;SDS011;8598;50.508;10.436;2022-07-30T07:05:23;4.43;;;3.50;;
16963;SDS011;8598;50.508;10.436;2022-07-30T07:07:54;4.00;;;3.50;;
16963;SDS011;8598;50.508;10.436;2022-07-30T07:10:20;3.57;;;3.27;;
16963;SDS011;8598;50.508;10.436;2022-07-30T07:12:47;4.90;;;3.13;;
16963;SDS011;8598;50.508;10.436;2022-07-30T07:15:14;6.63;;;3.20;;
16963;SDS011;8598;50.508;10.436;2022-07-30T07:17:40;4.07;;;2.63;;
16963;SDS011;8598;50.508;10.436;2022-07-30T07:20:07;3.27;;;2.50;;
16963;SDS011;8598;50.508;10.436;2022-07-30T07:22:34;4.50;;;2.63;;
16963;SDS011;8598;50.508;10.436;2022-07-30T07:25:03;3.77;;;3.33;;
16963;SDS011;8598;50.508;10.436;2022-07-30T07:27:30;4.80;;;3.23;;
16963;SDS011;8598;50.508;10.436;2022-07-30T07:29:57;3.17;;;2.87;;
16963;SDS011;8598;50.508;10.436;2022-07-30T07:32:23;3.20;;;3.00;;
16963;SDS011;8598;50.508;10.436;2022-07-30T07:34:50;5.80;;;2.70;;
16963;SDS011;8598;50.508;10.436;2022-07-30T07:37:17;4.00;;;2.87;;
16963;SDS011;8598;50.508;10.436;2022-07-30T07:39:43;3.73;;;2.70;;
16963;SDS011;8598;50.508;10.436;2022-07-30T07:42:11;3.40;;;2.97;;
16963;SDS011;8598;50.508;10.436;2022-07-30T07:44:38;11.37;;;2.43;;
16963;SDS011;8598;50.508;10.436;2022-07-30T07:47:04;3.27;;;2.50;;
16963;SDS011;8598;50.508;10.436;2022-07-30T07:49:31;7.83;;;2.93;;
16963;SDS011;8598;50.508;10.436;2022-07-30T07:51:58;4.07;;;2.70;;
16963;SDS011;8598;50.508;10.436;2022-07-30T07:54:24;7.83;;;2.97;;
16963;SDS011;8598;50.508;10.436;2022-07-30T07:56:51;4.10;;;3.03;;
16963;SDS011;8598;50.508;10.436;2022-07-30T07:59:21;3.63;;;2.90;;
16963;SDS011;8598;50.508;10.436;2022-07-30T08:01:48;3.83;;;2.97;;
16963;SDS011;8598;50.508;10.436;2022-07-30T08:04:14;5.30;;;2.97;;
16963;SDS011;8598;50.508;10.436;2022-07-30T08:06:41;6.40;;;3.20;;
16963;SDS011;8598;50.508;10.436;2022-07-30T08:09:08;3.77;;;2.87;;
16963;SDS011;8598;50.508;10.436;2022-07-30T08:11:34;4.57;;;3.33;;
16963;SDS011;8598;50.508;10.436;2022-07-30T08:14:01;4.87;;;3.20;;
16963;SDS011;8598;50.508;10.436;2022-07-30T08:16:29;4.77;;;3.00;;
16963;SDS011;8598;50.508;10.436;2022-07-30T08:18:56;3.80;;;3.30;;
16963;SDS011;8598;50.508;10.436;2022-07-30T08:21:22;4.90;;;3.00;;
16963;SDS011;8598;50.508;10.436;2022-07-30T08:23:49;6.27;;;3.70;;
16963;SDS011;8598;50.508;10.436;2022-07-30T08:26:15;4.27;;;3.43;;
16963;SDS011;8598;50.508;10.436;2022-07-30T08:28:42;3.97;;;3.10;;
16963;SDS011;8598;50.508;10.436;2022-07-30T08:31:09;3.90;;;3.50;;
16963;SDS011;8598;50.508;10.436;2022-07-30T08:33:37;3.83;;;3.43;;
16963;SDS011;8598;50.508;10.436;2022-07-30T08:36:04;5.53;;;3.40;;
16963;SDS011;8598;50.508;10.436;2022-07-30T08:38:31;3.80;;;3.50;;
16963;SDS011;8598;50.508;10.436;2022-07-30T08:40:57;3.70;;;3.40;;
16963;SDS011;8598;50.508;10.436;2022-07-30T08:43:24;5.37;;;3.77;;
16963;SDS011;8598;50.508;10.436;2022-07-30T08:45:52;4.50;;;3.53;;
16963;SDS011;8598;50.508;10.436;2022-07-30T08:48:20;4.87;;;3.80;;
16963;SDS011;8598;50.508;10.436;2022-07-30T08:50:48;4.47;;;3.87;;
16963;SDS011;8598;50.508;10.436;2022-07-30T08:53:15;7.33;;;3.50;;
16963;SDS011;8598;50.508;10.436;2022-07-30T08:55:42;4.23;;;3.23;;
16963;SDS011;8598;50.508;10.436;2022-07-30T08:58:12;3.53;;;3.07;;
16963;SDS011;8598;50.508;10.436;2022-07-30T09:00:46;7.17;;;3.10;;
16963;SDS011;8598;50.508;10.436;2022-07-30T09:03:14;5.63;;;3.43;;
16963;SDS011;8598;50.508;10.436;2022-07-30T09:05:41;4.53;;;3.20;;
16963;SDS011;8598;50.508;10.436;2022-07-30T09:08:09;4.33;;;3.10;;
16963;SDS011;8598;50.508;10.436;2022-07-30T09:10:35;4.40;;;2.97;;
16963;SDS011;8598;50.508;10.436;2022-07-30T09:13:02;4.67;;;3.20;;
16963;SDS011;8598;50.508;10.436;2022-07-30T09:15:29;5.53;;;3.10;;
16963;SDS011;8598;50.508;10.436;2022-07-30T09:17:58;3.60;;;3.30;;
16963;SDS011;8598;50.508;10.436;2022-07-30T09:20:26;7.13;;;3.43;;
16963;SDS011;8598;50.508;10.436;2022-07-30T09:22:55;7.20;;;3.57;;
16963;SDS011;8598;50.508;10.436;2022-07-30T09:25:34;4.50;;;3.00;;
16963;SDS011;8598;50.508;10.436;2022-07-30T09:28:02;3.47;;;3.00;;
16963;SDS011;8598;50.508;10.436;2022-07-30T09:30:43;6.37;;;2.87;;
16963;SDS011;8598;50.508;10.436;2022-07-30T09:33:12;5.63;;;3.67;;
16963;SDS011;8598;50.508;10.436;2022-07-30T09:35:39;4.73;;;2.90;;
16963;SDS011;8598;50.508;10.436;2022-07-30T09:38:07;2.93;;;2.63;;
16963;SDS011;8598;50.508;10.436;2022-07-30T09:40:35;4.20;;;3.47;;
16963;SDS011;8598;50.508;10.436;2022-07-30T09:43:03;5.87;;;2.63;;
16963;SDS011;8598;50.508;10.436;2022-07-30T09:45:31;3.67;;;2.80;;
16963;SDS011;8598;50.508;10.436;2022-07-30T09:47:58;4.67;;;2.60;;
16963;SDS011;8598;50.508;10.436;2022-07-30T09:50:25;3.53;;;2.50;;
16963;SDS011;8598;50.508;10.436;2022-07-30T09:52:53;5.27;;;2.67;;
16963;SDS011;8598;50.508;10.436;2022-07-30T09:55:30;3.73;;;3.13;;
16963;SDS011;8598;50.508;10.436;2022-07-30T09:57:59;5.73;;;2.70;;
16963;SDS011;8598;50.508;10.436;2022-07-30T10:00:28;6.13;;;2.73;;
16963;SDS011;8598;50.508;10.436;2022-07-30T10:02:56;2.93;;;2.53;;
16963;SDS011;8598;50.508;10.436;2022-07-30T10:05:24;4.30;;;2.73;;
16963;SDS011;8598;50.508;10.436;2022-07-30T10:07:52;3.07;;;2.67;;
16963;SDS011;8598;50.508;10.436;2022-07-30T10:10:21;5.37;;;2.63;;
16963;SDS011;8598;50.508;10.436;2022-07-30T10:12:51;5.30;;;2.67;;
16963;SDS011;8598;50.508;10.436;2022-07-30T10:15:23;5.23;;;2.80;;
16963;SDS011;8598;50.508;10.436;2022-07-30T10:17:52;3.97;;;2.77;;
16963;SDS011;8598;50.508;10.436;2022-07-30T10:20:20;3.47;;;2.63;;
16963;SDS011;8598;50.508;10.436;2022-07-30T10:22:46;4.20;;;2.70;;
16963;SDS011;8598;50.508;10.436;2022-07-30T10:25:16;4.53;;;2.83;;
16963;SDS011;8598;50.508;10.436;2022-07-30T10:27:43;4.30;;;2.63;;
16963;SDS011;8598;50.508;10.436;2022-07-30T10:30:11;3.57;;;2.53;;
16963;SDS011;8598;50.508;10.436;2022-07-30T10:32:39;3.80;;;2.70;;
16963;SDS011;8598;50.508;10.436;2022-07-30T10:35:06;4.80;;;3.20;;
16963;SDS011;8598;50.508;10.436;2022-07-30T10:37:34;4.77;;;2.80;;
16963;SDS011;8598;50.508;10.436;2022-07-30T10:40:04;4.27;;;2.43;;
16963;SDS011;8598;50.508;10.436;2022-07-30T10:42:42;6.57;;;2.80;;
16963;SDS011;8598;50.508;10.436;2022-07-30T10:45:24;2.63;;;2.33;;
16963;SDS011;8598;50.508;10.436;2022-07-30T10:48:02;4.27;;;2.77;;
16963;SDS011;8598;50.508;10.436;2022-07-30T10:50:29;7.53;;;2.60;;
16963;SDS011;8598;50.508;10.436;2022-07-30T10:52:57;4.50;;;2.60;;
16963;SDS011;8598;50.508;10.436;2022-07-30T10:55:25;3.80;;;2.60;;
16963;SDS011;8598;50.508;10.436;2022-07-30T10:57:57;3.73;;;2.40;;
16963;SDS011;8598;50.508;10.436;2022-07-30T11:00:29;3.23;;;2.60;;
16963;SDS011;8598;50.508;10.436;2022-07-30T11:03:14;4.63;;;2.63;;
16963;SDS011;8598;50.508;10.436;2022-07-30T11:05:47;4.77;;;2.70;;
16963;SDS011;8598;50.508;10.436;2022-07-30T11:08:31;4.40;;;2.80;;
16963;SDS011;8598;50.508;10.436;2022-07-30T11:14:10;6.63;;;2.73;;
16963;SDS011;8598;50.508;10.436;2022-07-30T11:19:24;2.57;;;2.37;;
16963;SDS011;8598;50.508;10.436;2022-07-30T11:24:47;4.20;;;2.83;;
16963;SDS011;8598;50.508;10.436;2022-07-30T11:30:02;6.07;;;3.33;;
16963;SDS011;8598;50.508;10.436;2022-07-30T11:32:32;3.20;;;2.90;;
16963;SDS011;8598;50.508;10.436;2022-07-30T11:35:12;9.60;;;3.10;;
16963;SDS011;8598;50.508;10.436;2022-07-30T11:37:56;5.17;;;3.40;;
16963;SDS011;8598;50.508;10.436;2022-07-30T11:40:25;7.77;;;3.50;;
16963;SDS011;8598;50.508;10.436;2022-07-30T11:45:41;3.57;;;2.93;;
16963;SDS011;8598;50.508;10.436;2022-07-30T11:48:09;4.87;;;3.43;;
16963;SDS011;8598;50.508;10.436;2022-07-30T11:50:39;3.80;;;3.27;;
16963;SDS011;8598;50.508;10.436;2022-07-30T11:53:07;3.53;;;3.10;;
16963;SDS011;8598;50.508;10.436;2022-07-30T11:55:36;5.23;;;3.10;;
16963;SDS011;8598;50.508;10.436;2022-07-30T11:58:04;5.00;;;3.23;;
16963;SDS011;8598;50.508;10.436;2022-07-30T12:00:34;4.27;;;2.97;;
16963;SDS011;8598;50.508;10.436;2022-07-30T12:03:09;4.97;;;3.07;;
16963;SDS011;8598;50.508;10.436;2022-07-30T12:05:38;6.93;;;2.90;;
16963;SDS011;8598;50.508;10.436;2022-07-30T12:08:06;7.07;;;3.80;;
16963;SDS011;8598;50.508;10.436;2022-07-30T12:10:33;4.83;;;2.97;;
16963;SDS011;8598;50.508;10.436;2022-07-30T12:13:06;4.83;;;3.00;;
16963;SDS011;8598;50.508;10.436;2022-07-30T12:15:34;7.77;;;3.10;;
16963;SDS011;8598;50.508;10.436;2022-07-30T12:18:03;4.53;;;3.27;;
16963;SDS011;8598;50.508;10.436;2022-07-30T12:20:30;4.73;;;3.10;;
16963;SDS011;8598;50.508;10.436;2022-07-30T12:22:58;4.90;;;2.67;;
16963;SDS011;8598;50.508;10.436;2022-07-30T12:25:26;3.13;;;2.83;;
16963;SDS011;8598;50.508;10.436;2022-07-30T12:27:53;3.43;;;2.80;;
16963;SDS011;8598;50.508;10.436;2022-07-30T12:30:20;3.73;;;2.73;;
16963;SDS011;8598;50.508;10.436;2022-07-30T12:32:48;3.67;;;3.10;;
16963;SDS011;8598;50.508;10.436;2022-07-30T12:35:15;5.33;;;3.30;;
16963;SDS011;8598;50.508;10.436;2022-07-30T12:37:43;4.83;;;3.03;;
16963;SDS011;8598;50.508;10.436;2022-07-30T12:40:29;4.93;;;3.97;;
16963;SDS011;8598;50.508;10.436;2022-07-30T12:42:56;7.00;;;3.70;;
16963;SDS011;8598;50.508;10.436;2022-07-30T12:45:26;4.57;;;3.50;;
16963;SDS011;8598;50.508;10.436;2022-07-30T12:47:54;4.73;;;3.17;;
16963;SDS011;8598;50.508;10.436;2022-07-30T12:50:21;4.23;;;3.83;;
16963;SDS011;8598;50.508;10.436;2022-07-30T12:52:49;4.37;;;3.83;;
16963;SDS011;8598;50.508;10.436;2022-07-30T12:55:18;8.27;;;3.53;;
16963;SDS011;8598;50.508;10.436;2022-07-30T12:57:54;5.83;;;3.47;;
16963;SDS011;8598;50.508;10.436;2022-07-30T13:00:23;5.57;;;3.40;;
16963;SDS011;8598;50.508;10.436;2022-07-30T13:02:51;9.77;;;3.43;;
16963;SDS011;8598;50.508;10.436;2022-07-30T13:05:18;6.80;;;3.83;;
16963;SDS011;8598;50.508;10.436;2022-07-30T13:07:52;6.63;;;3.80;;
16963;SDS011;8598;50.508;10.436;2022-07-30T13:10:21;4.40;;;3.70;;
16963;SDS011;8598;50.508;10.436;2022-07-30T13:12:48;4.90;;;3.40;;
16963;SDS011;8598;50.508;10.436;2022-07-30T13:15:18;4.00;;;3.57;;
16963;SDS011;8598;50.508;10.436;2022-07-30T13:17:45;6.07;;;4.47;;
16963;SDS011;8598;50.508;10.436;2022-07-30T13:20:12;5.40;;;4.10;;
16963;SDS011;8598;50.508;10.436;2022-07-30T13:22:40;7.33;;;3.83;;
16963;SDS011;8598;50.508;10.436;2022-07-30T13:25:07;4.63;;;3.60;;
16963;SDS011;8598;50.508;10.436;2022-07-30T13:27:36;4.80;;;4.20;;
16963;SDS011;8598;50.508;10.436;2022-07-30T13:30:03;5.67;;;4.13;;
16963;SDS011;8598;50.508;10.436;2022-07-30T13:32:30;5.33;;;4.17;;
16963;SDS011;8598;50.508;10.436;2022-07-30T13:34:57;4.20;;;3.80;;
16963;SDS011;8598;50.508;10.436;2022-07-30T13:37:23;6.13;;;3.93;;
16963;SDS011;8598;50.508;10.436;2022-07-30T13:39:50;6.53;;;3.87;;
16963;SDS011;8598;50.508;10.436;2022-07-30T13:42:17;7.73;;;3.73;;
16963;SDS011;8598;50.508;10.436;2022-07-30T13:44:45;5.13;;;3.30;;
16963;SDS011;8598;50.508;10.436;2022-07-30T13:47:11;4.50;;;3.53;;
16963;SDS011;8598;50.508;10.436;2022-07-30T13:49:38;9.23;;;4.13;;
16963;SDS011;8598;50.508;10.436;2022-07-30T13:52:08;6.40;;;3.20;;
16963;SDS011;8598;50.508;10.436;2022-07-30T13:54:35;4.53;;;3.90;;
16963;SDS011;8598;50.508;10.436;2022-07-30T13:57:02;5.23;;;3.40;;
16963;SDS011;8598;50.508;10.436;2022-07-30T13:59:29;5.20;;;3.67;;
16963;SDS011;8598;50.508;10.436;2022-07-30T14:01:57;3.60;;;3.10;;
16963;SDS011;8598;50.508;10.436;2022-07-30T14:04:27;5.60;;;3.50;;
16963;SDS011;8598;50.508;10.436;2022-07-30T14:06:54;6.20;;;3.27;;
16963;SDS011;8598;50.508;10.436;2022-07-30T14:09:21;6.93;;;3.03;;
16963;SDS011;8598;50.508;10.436;2022-07-30T14:11:47;4.23;;;2.90;;
16963;SDS011;8598;50.508;10.436;2022-07-30T14:14:14;4.47;;;3.50;;
16963;SDS011;8598;50.508;10.436;2022-07-30T14:16:41;5.00;;;2.90;;
16963;SDS011;8598;50.508;10.436;2022-07-30T14:19:09;4.13;;;3.17;;
16963;SDS011;8598;50.508;10.436;2022-07-30T14:21:35;4.13;;;2.83;;
16963;SDS011;8598;50.508;10.436;2022-07-30T14:24:02;5.43;;;3.07;;
16963;SDS011;8598;50.508;10.436;2022-07-30T14:26:30;3.73;;;2.70;;
16963;SDS011;8598;50.508;10.436;2022-07-30T14:28:56;6.40;;;2.30;;
16963;SDS011;8598;50.508;10.436;2022-07-30T14:31:23;2.40;;;2.17;;
16963;SDS011;8598;50.508;10.436;2022-07-30T14:33:50;3.60;;;2.20;;
16963;SDS011;8598;50.508;10.436;2022-07-30T14:36:18;2.87;;;2.53;;
16963;SDS011;8598;50.508;10.436;2022-07-30T14:38:44;3.10;;;2.43;;
16963;SDS011;8598;50.508;10.436;2022-07-30T14:41:11;3.37;;;3.07;;
16963;SDS011;8598;50.508;10.436;2022-07-30T14:43:40;3.40;;;2.27;;
16963;SDS011;8598;50.508;10.436;2022-07-30T14:46:07;3.07;;;2.30;;
16963;SDS011;8598;50.508;10.436;2022-07-30T14:48:33;2.87;;;2.67;;
16963;SDS011;8598;50.508;10.436;2022-07-30T14:51:00;3.50;;;2.63;;
16963;SDS011;8598;50.508;10.436;2022-07-30T14:53:29;2.63;;;2.43;;
16963;SDS011;8598;50.508;10.436;2022-07-30T14:55:56;2.87;;;2.40;;
16963;SDS011;8598;50.508;10.436;2022-07-30T14:58:22;4.47;;;2.60;;